Time;durP1;ratioP1;P1;durP2;ratioP2;P2;SDS_P1;SDS_P2;PMS_P1;PMS_P2;Temp;Humidity;BMP_temperature;BMP_pressure;BME280_temperature;BME280_humidity;BME280_pressure;Samples;Min_cycle;Max_cycle;Signal;HPM_P1;HPM_P2
2022/04/08 00:00:50;;;;;;;3.37;1.67;;;;;5.70;99472.00;;;;10574468;28;20556;-80
2022/04/08 00:05:52;;;;;;;5.57;1.80;;;;;5.80;99474.00;;;;10469909;28;20204;-80
2022/04/08 00:10:54;;;;;;;4.17;1.80;;;;;5.70;99476.00;;;;10487399;28;20189;-80
2022/04/08 00:15:56;;;;;;;3.43;1.50;;;;;5.80;99470.00;;;;10469754;28;20537;-80
2022/04/08 00:20:58;;;;;;;10.93;1.87;;;;;5.80;99470.00;;;;10488116;28;20201;-79
2022/04/08 00:25:59;;;;;;;7.37;1.80;;;;;5.80;99479.00;;;;10494788;28;20231;-80
2022/04/08 00:31:02;;;;;;;9.00;2.17;;;;;5.70;99481.00;;;;10535380;28;20196;-80
2022/04/08 00:36:04;;;;;;;5.87;2.00;;;;;5.60;99482.00;;;;10551645;28;20203;-80
2022/04/08 00:41:06;;;;;;;5.73;1.43;;;;;5.60;99491.00;;;;10535404;28;20200;-80
2022/04/08 00:46:11;;;;;;;6.80;2.00;;;;;5.50;99498.00;;;;10551450;28;20222;-79
2022/04/08 00:51:15;;;;;;;4.93;2.13;;;;;5.50;99488.00;;;;10540662;27;20219;-80
2022/04/08 00:56:19;;;;;;;4.67;1.80;;;;;5.60;99495.00;;;;10559765;27;20209;-80
2022/04/08 01:01:21;;;;;;;2.80;1.70;;;;;5.70;99504.00;;;;10565031;27;20287;-80
2022/04/08 01:06:25;;;;;;;5.37;1.90;;;;;5.70;99503.00;;;;10550724;28;20919;-80
2022/04/08 01:11:27;;;;;;;5.60;2.13;;;;;5.60;99503.00;;;;10550311;28;20558;-80
2022/04/08 01:16:29;;;;;;;5.33;1.83;;;;;5.50;99520.00;;;;10550364;28;20208;-80
2022/04/08 01:21:31;;;;;;;5.83;2.17;;;;;5.40;99526.00;;;;10551018;28;20245;-80
2022/04/08 01:26:33;;;;;;;6.33;2.27;;;;;5.40;99521.00;;;;10505515;28;20196;-80
2022/04/08 01:31:35;;;;;;;5.87;2.40;;;;;5.30;99523.00;;;;10507787;28;20247;-80
2022/04/08 01:36:37;;;;;;;2.70;1.97;;;;;5.30;99524.00;;;;10516555;28;20216;-81
2022/04/08 01:41:39;;;;;;;5.07;2.37;;;;;5.40;99527.00;;;;10516891;28;20196;-80
2022/04/08 01:46:41;;;;;;;13.73;3.23;;;;;5.50;99526.00;;;;10549373;28;20199;-80
2022/04/08 01:51:43;;;;;;;4.97;2.60;;;;;5.50;99527.00;;;;10559301;27;20207;-80
2022/04/08 01:56:45;;;;;;;3.47;2.50;;;;;5.60;99522.00;;;;10566302;27;20559;-80
2022/04/08 02:01:47;;;;;;;9.77;2.60;;;;;5.60;99529.00;;;;10533865;28;20192;-80
2022/04/08 02:06:50;;;;;;;7.07;3.07;;;;;5.50;99535.00;;;;10507769;28;20674;-80
2022/04/08 02:11:52;;;;;;;7.67;2.93;;;;;5.50;99525.00;;;;10507509;28;20188;-80
2022/04/08 02:16:54;;;;;;;7.27;2.37;;;;;5.50;99530.00;;;;10522979;28;20563;-80
2022/04/08 02:21:57;;;;;;;3.40;2.07;;;;;5.30;99529.00;;;;10531524;27;20196;-80
2022/04/08 02:27:00;;;;;;;9.00;2.60;;;;;5.20;99517.00;;;;10591089;27;20186;-80
2022/04/08 02:32:01;;;;;;;7.27;2.93;;;;;5.10;99526.00;;;;10574280;27;20190;-80
2022/04/08 02:37:05;;;;;;;6.03;3.47;;;;;5.00;99513.00;;;;10542910;27;20779;-80
2022/04/08 02:42:07;;;;;;;5.63;2.77;;;;;4.90;99524.00;;;;10489640;28;20618;-80
2022/04/08 02:47:09;;;;;;;6.50;3.20;;;;;4.90;99517.00;;;;10489802;28;20269;-80
2022/04/08 02:52:11;;;;;;;5.17;3.10;;;;;4.80;99519.00;;;;10522913;28;20631;-80
2022/04/08 02:57:13;;;;;;;5.57;3.30;;;;;4.80;99523.00;;;;10543302;28;20204;-80
2022/04/08 03:02:15;;;;;;;5.43;2.97;;;;;4.80;99533.00;;;;10489110;28;20185;-80
2022/04/08 03:07:17;;;;;;;5.00;2.97;;;;;4.80;99538.00;;;;10489240;28;20288;-80
2022/04/08 03:12:19;;;;;;;6.47;3.40;;;;;4.70;99538.00;;;;10506751;28;20283;-80
2022/04/08 03:17:21;;;;;;;5.80;3.53;;;;;4.70;99556.00;;;;10504975;28;20188;-80
2022/04/08 03:22:23;;;;;;;7.60;3.47;;;;;4.80;99562.00;;;;10479211;28;20196;-80
2022/04/08 03:27:26;;;;;;;6.67;3.83;;;;;4.80;99563.00;;;;10514874;28;20265;-80
2022/04/08 03:32:28;;;;;;;8.67;3.93;;;;;4.90;99565.00;;;;10530968;28;20216;-80
2022/04/08 03:37:30;;;;;;;9.80;4.00;;;;;4.90;99570.00;;;;10514273;28;20269;-80
2022/04/08 03:42:32;;;;;;;9.73;4.73;;;;;4.80;99574.00;;;;10547805;28;20192;-80
2022/04/08 03:47:33;;;;;;;10.97;4.60;;;;;4.80;99582.00;;;;10546158;28;20200;-80
2022/04/08 03:52:35;;;;;;;9.37;4.50;;;;;4.70;99581.00;;;;10513888;28;20215;-80
2022/04/08 03:57:37;;;;;;;7.23;3.60;;;;;4.70;99574.00;;;;10536893;28;20242;-80
2022/04/08 04:02:39;;;;;;;6.30;3.53;;;;;4.70;99544.00;;;;10553426;28;20246;-80
2022/04/08 04:07:41;;;;;;;9.47;4.47;;;;;4.70;99549.00;;;;10514601;28;20208;-81
2022/04/08 04:12:43;;;;;;;7.10;3.47;;;;;4.70;99538.00;;;;10528367;28;20216;-80
2022/04/08 04:17:45;;;;;;;8.87;4.37;;;;;4.60;99529.00;;;;10521315;28;20237;-80
2022/04/08 04:22:47;;;;;;;5.03;3.67;;;;;4.50;99526.00;;;;10572613;27;20295;-80
2022/04/08 04:27:49;;;;;;;10.70;4.13;;;;;4.40;99523.00;;;;10578690;27;20498;-80
2022/04/08 04:32:53;;;;;;;7.80;3.07;;;;;4.30;99539.00;;;;10528635;28;20236;-80
2022/04/08 04:37:55;;;;;;;8.43;5.27;;;;;4.30;99530.00;;;;10527995;28;20273;-80
2022/04/08 04:42:57;;;;;;;7.33;3.60;;;;;4.30;99538.00;;;;10533519;28;20212;-80
2022/04/08 04:47:59;;;;;;;10.27;4.50;;;;;4.30;99538.00;;;;10554100;28;20196;-80
2022/04/08 04:53:02;;;;;;;10.37;5.23;;;;;4.30;99527.00;;;;10498679;28;20205;-80
2022/04/08 04:58:05;;;;;;;9.80;4.00;;;;;4.30;99529.00;;;;10529909;28;20204;-80
2022/04/08 05:03:08;;;;;;;8.90;3.87;;;;;4.30;99520.00;;;;10535808;28;20193;-79
2022/04/08 05:08:10;;;;;;;8.40;4.10;;;;;4.30;99519.00;;;;10551601;28;20184;-79
2022/04/08 05:13:12;;;;;;;5.67;4.30;;;;;4.30;99519.00;;;;10568741;28;20204;-79
2022/04/08 05:18:15;;;;;;;6.57;3.77;;;;;4.40;99517.00;;;;10536064;28;20297;-80
2022/04/08 05:23:16;;;;;;;8.23;3.97;;;;;4.50;99522.00;;;;10551935;28;20181;-80
2022/04/08 05:28:18;;;;;;;8.27;3.83;;;;;4.60;99507.00;;;;10517554;28;20687;-80
2022/04/08 05:33:20;;;;;;;7.40;3.90;;;;;4.70;99505.00;;;;10534503;28;20205;-79
2022/04/08 05:38:22;;;;;;;7.80;3.93;;;;;4.90;99497.00;;;;10518456;28;20212;-80
2022/04/08 05:43:24;;;;;;;11.53;3.67;;;;;5.00;99487.00;;;;10498295;28;20925;-79
2022/04/08 05:48:26;;;;;;;11.47;4.00;;;;;5.20;99487.00;;;;10530994;28;20506;-80
2022/04/08 05:53:34;;;;;;;5.53;3.23;;;;;5.30;99483.00;;;;10538171;28;20250;-80
2022/04/08 05:58:36;;;;;;;7.53;3.23;;;;;5.50;99485.00;;;;10490765;28;20201;-80
2022/04/08 06:03:38;;;;;;;11.47;5.00;;;;;5.70;99493.00;;;;10491681;28;20189;-80
2022/04/08 06:08:40;;;;;;;9.20;3.30;;;;;5.90;99486.00;;;;10491005;28;20193;-79
2022/04/08 06:13:42;;;;;;;6.53;3.50;;;;;6.00;99487.00;;;;10506651;28;20668;-80
2022/04/08 06:18:44;;;;;;;11.03;3.63;;;;;6.10;99478.00;;;;10526839;28;20290;-80
2022/04/08 06:23:46;;;;;;;10.40;2.83;;;;;6.20;99478.00;;;;10517107;28;20192;-80
2022/04/08 06:28:48;;;;;;;5.80;3.63;;;;;6.30;99474.00;;;;10550448;28;20279;-81
2022/04/08 06:33:50;;;;;;;9.47;3.93;;;;;6.30;99479.00;;;;10532862;28;20258;-81
2022/04/08 06:38:51;;;;;;;8.70;3.00;;;;;6.40;99471.00;;;;10549838;28;20294;-80
2022/04/08 06:43:54;;;;;;;9.93;3.20;;;;;6.40;99466.00;;;;10515744;28;20207;-80
2022/04/08 06:48:58;;;;;;;5.13;3.33;;;;;6.50;99470.00;;;;10532627;28;20196;-80
2022/04/08 06:54:01;;;;;;;7.27;3.33;;;;;6.60;99458.00;;;;10562685;27;20223;-80
2022/04/08 06:59:03;;;;;;;8.00;2.93;;;;;6.80;99457.00;;;;10499252;28;20287;-80
2022/04/08 07:04:06;;;;;;;7.70;3.77;;;;;6.90;99464.00;;;;10508277;28;20640;-80
2022/04/08 07:09:08;;;;;;;10.17;2.90;;;;;7.00;99461.00;;;;10491688;28;20192;-81
2022/04/08 07:14:10;;;;;;;8.30;2.87;;;;;7.20;99452.00;;;;10474495;28;20231;-78
2022/04/08 07:19:12;;;;;;;7.97;2.80;;;;;7.50;99452.00;;;;10533989;28;20196;-81
2022/04/08 07:24:13;;;;;;;8.60;2.50;;;;;7.60;99446.00;;;;10491151;28;20212;-81
2022/04/08 07:29:15;;;;;;;8.87;2.73;;;;;7.70;99429.00;;;;10544977;27;20225;-80
2022/04/08 07:34:17;;;;;;;9.73;3.53;;;;;7.80;99424.00;;;;10600730;27;20714;-80
2022/04/08 07:39:19;;;;;;;5.93;2.13;;;;;8.00;99414.00;;;;10617532;27;20223;-80
2022/04/08 07:44:21;;;;;;;6.67;2.10;;;;;8.10;99422.00;;;;10601300;27;20195;-80
2022/04/08 07:49:23;;;;;;;6.10;2.20;;;;;8.20;99414.00;;;;10589995;27;20261;-81
2022/04/08 07:54:25;;;;;;;3.93;2.60;;;;;8.40;99404.00;;;;10540200;28;20207;-81
2022/04/08 07:59:27;;;;;;;9.47;2.60;;;;;8.40;99401.00;;;;10539961;28;20195;-80
2022/04/08 08:04:29;;;;;;;5.90;2.30;;;;;8.50;99386.00;;;;10539761;28;20724;-81
2022/04/08 08:09:31;;;;;;;6.17;2.07;;;;;8.70;99379.00;;;;10522996;28;20664;-81
2022/04/08 08:14:54;;;;;;;7.83;1.97;;;;;8.90;99363.00;;;;10542299;28;20206;-81
2022/04/08 08:19:57;;;;;;;4.10;1.90;;;;;9.10;99359.00;;;;10556630;28;20561;-81
2022/04/08 08:24:59;;;;;;;9.00;2.30;;;;;9.30;99358.00;;;;10515029;28;20246;-81
2022/04/08 08:30:01;;;;;;;8.43;2.33;;;;;9.40;99350.00;;;;10514853;28;20196;-81
2022/04/08 08:35:04;;;;;;;7.07;2.10;;;;;9.50;99348.00;;;;10538474;28;20211;-80
2022/04/08 08:40:07;;;;;;;7.23;1.53;;;;;9.60;99330.00;;;;10539554;28;20208;-81
2022/04/08 08:45:11;;;;;;;7.67;1.87;;;;;9.70;99327.00;;;;10520798;28;20245;-80
2022/04/08 08:50:15;;;;;;;2.83;1.27;;;;;9.80;99327.00;;;;10536569;28;20563;-82
2022/04/08 08:55:18;;;;;;;4.63;1.83;;;;;9.70;99326.00;;;;10520348;28;20221;-79
2022/04/08 09:00:23;;;;;;;4.23;1.90;;;;;9.60;99329.00;;;;10495055;28;20197;-79
2022/04/08 09:05:25;;;;;;;6.03;1.70;;;;;9.50;99338.00;;;;10512360;28;20280;-79
2022/04/08 09:10:40;;;;;;;10.90;2.40;;;;;9.50;99343.00;;;;10511541;28;20196;-79
2022/04/08 09:16:09;;;;;;;8.90;1.93;;;;;9.40;99352.00;;;;10510626;28;20201;-79
2022/04/08 09:21:20;;;;;;;6.03;2.13;;;;;9.30;99356.00;;;;10505458;27;20196;-78
2022/04/08 09:26:22;;;;;;;6.73;1.97;;;;;9.40;99365.00;;;;10548099;27;20250;-79
2022/04/08 09:31:25;;;;;;;5.10;1.60;;;;;9.30;99371.00;;;;10522763;28;20208;-78
2022/04/08 09:36:27;;;;;;;5.53;1.93;;;;;9.30;99369.00;;;;10552449;28;20218;-79
2022/04/08 09:41:48;;;;;;;3.20;1.50;;;;;9.40;99364.00;;;;10536388;28;20196;-79
2022/04/08 09:46:50;;;;;;;4.87;1.77;;;;;9.40;99362.00;;;;10517965;28;20208;-79
2022/04/08 09:51:54;;;;;;;4.20;1.50;;;;;9.50;99343.00;;;;10552750;28;20267;-79
2022/04/08 09:56:58;;;;;;;6.97;1.53;;;;;9.50;99340.00;;;;10506931;28;20224;-78
2022/04/08 10:02:06;;;;;;;2.90;1.73;;;;;9.60;99334.00;;;;10526955;28;20199;-78
2022/04/08 10:07:09;;;;;;;7.77;1.77;;;;;9.70;99322.00;;;;10509984;28;20223;-79
2022/04/08 10:12:34;;;;;;;2.40;1.20;;;;;10.00;99315.00;;;;10492990;28;20197;-78
2022/04/08 10:17:35;;;;;;;5.40;1.50;;;;;10.00;99304.00;;;;10492059;28;20215;-79
2022/04/08 10:22:41;;;;;;;4.73;1.50;;;;;10.10;99304.00;;;;10510910;27;20238;-79
2022/04/08 10:27:44;;;;;;;4.40;1.50;;;;;9.90;99299.00;;;;10592505;27;20241;-79
2022/04/08 10:32:48;;;;;;;3.07;1.50;;;;;10.10;99298.00;;;;10510515;28;20185;-79
2022/04/08 10:38:03;;;;;;;6.10;1.47;;;;;10.10;99291.00;;;;10529065;28;20231;-78
2022/04/08 10:43:09;;;;;;;5.03;1.90;;;;;10.20;99288.00;;;;10516467;28;20194;-79
2022/04/08 10:48:11;;;;;;;3.60;1.63;;;;;10.20;99280.00;;;;10549812;28;20585;-79
2022/04/08 10:53:19;;;;;;;4.17;1.37;;;;;10.20;99272.00;;;;10548730;28;20192;-78
2022/04/08 10:58:42;;;;;;;5.60;1.43;;;;;10.30;99265.00;;;;10548956;28;20252;-79
2022/04/08 11:03:48;;;;;;;4.70;1.50;;;;;10.40;99246.00;;;;10566273;28;20538;-78
2022/04/08 11:08:50;;;;;;;4.30;1.80;;;;;10.50;99238.00;;;;10549085;28;20196;-79
2022/04/08 11:13:57;;;;;;;4.20;1.17;;;;;10.60;99235.00;;;;10549595;28;20208;-79
2022/04/08 11:18:59;;;;;;;3.00;1.10;;;;;10.60;99215.00;;;;10565102;28;20192;-79
2022/04/08 11:24:06;;;;;;;5.87;1.10;;;;;10.70;99211.00;;;;10540138;28;20185;-78
2022/04/08 11:29:22;;;;;;;3.27;1.20;;;;;10.80;99208.00;;;;10523280;28;20651;-79
2022/04/08 11:34:27;;;;;;;5.90;1.20;;;;;10.70;99211.00;;;;10538417;28;20288;-78
2022/04/08 11:39:32;;;;;;;1.90;1.07;;;;;10.40;99195.00;;;;10522680;28;20684;-78
2022/04/08 11:44:34;;;;;;;6.50;2.23;;;;;10.50;99190.00;;;;10523445;28;20250;-78
2022/04/08 11:49:36;;;;;;;5.13;1.30;;;;;10.80;99194.00;;;;10518144;28;20188;-78
2022/04/08 11:54:40;;;;;;;5.50;1.30;;;;;10.90;99173.00;;;;10562471;28;20208;-79
2022/04/08 12:00:07;;;;;;;2.37;1.30;;;;;11.20;99182.00;;;;10610973;28;20276;-78
2022/04/08 12:05:24;;;;;;;4.03;1.07;;;;;11.30;99175.00;;;;10576077;28;20230;-78
2022/04/08 12:10:27;;;;;;;5.97;1.30;;;;;11.50;99171.00;;;;10550038;28;20196;-78
2022/04/08 12:15:29;;;;;;;2.27;0.90;;;;;11.60;99169.00;;;;10532883;28;20578;-78
2022/04/08 12:20:31;;;;;;;5.67;1.37;;;;;11.70;99164.00;;;;10556394;28;20207;-78
2022/04/08 12:25:36;;;;;;;5.17;1.63;;;;;11.80;99172.00;;;;10499279;28;20188;-78
2022/04/08 12:30:38;;;;;;;4.53;1.20;;;;;11.60;99180.00;;;;10515225;28;20239;-79
2022/04/08 12:35:40;;;;;;;5.67;1.63;;;;;11.50;99174.00;;;;10515835;28;20622;-78
2022/04/08 12:40:42;;;;;;;4.07;1.50;;;;;11.80;99172.00;;;;10514825;28;20221;-78
2022/04/08 12:45:44;;;;;;;2.03;1.10;;;;;12.00;99164.00;;;;10514333;28;20189;-78
2022/04/08 12:50:46;;;;;;;1.80;1.00;;;;;12.30;99182.00;;;;10526954;27;20188;-79
2022/04/08 12:55:49;;;;;;;5.53;1.37;;;;;12.50;99180.00;;;;10580196;27;20213;-79
2022/04/08 13:00:54;;;;;;;3.17;1.50;;;;;12.50;99171.00;;;;10580203;27;20642;-78
2022/04/08 13:05:56;;;;;;;7.00;1.70;;;;;12.60;99184.00;;;;10549923;27;20193;-79
2022/04/08 13:10:58;;;;;;;6.30;1.60;;;;;12.60;99175.00;;;;10504374;28;20235;-79
2022/04/08 13:16:00;;;;;;;5.57;1.77;;;;;12.80;99188.00;;;;10479045;28;20737;-78
2022/04/08 13:21:03;;;;;;;9.00;2.67;;;;;13.00;99185.00;;;;10530413;28;20200;-78
2022/04/08 13:26:05;;;;;;;5.37;2.10;;;;;13.50;99179.00;;;;10554064;28;20719;-78
2022/04/08 13:31:07;;;;;;;5.50;2.60;;;;;13.50;99164.00;;;;10552597;28;20184;-79
2022/04/08 13:36:09;;;;;;;5.17;1.90;;;;;13.70;99173.00;;;;10536063;28;20253;-78
2022/04/08 13:41:11;;;;;;;6.23;1.90;;;;;13.50;99171.00;;;;10553123;28;20203;-79
2022/04/08 13:46:13;;;;;;;3.83;2.00;;;;;13.10;99166.00;;;;10511988;28;20204;-78
2022/04/08 13:51:15;;;;;;;3.87;1.93;;;;;13.20;99163.00;;;;10508471;27;20199;-79
2022/04/08 13:56:17;;;;;;;10.33;2.33;;;;;14.20;99163.00;;;;10578394;27;20669;-79
2022/04/08 14:01:19;;;;;;;5.77;2.10;;;;;14.80;99155.00;;;;10594457;27;20199;-79
2022/04/08 14:06:21;;;;;;;6.17;1.80;;;;;14.80;99158.00;;;;10494988;28;20628;-79
2022/04/08 14:11:23;;;;;;;5.67;1.93;;;;;13.60;99163.00;;;;10494413;28;20218;-78
2022/04/08 14:16:25;;;;;;;5.80;1.80;;;;;13.10;99158.00;;;;10493300;28;20225;-78
2022/04/08 14:21:27;;;;;;;3.53;1.43;;;;;12.60;99168.00;;;;10518234;28;20203;-78
2022/04/08 14:26:29;;;;;;;3.87;1.90;;;;;12.70;99164.00;;;;10569611;28;20599;-78
2022/04/08 14:31:32;;;;;;;5.67;1.50;;;;;12.70;99174.00;;;;10563015;28;20283;-78
2022/04/08 14:36:34;;;;;;;8.60;1.80;;;;;12.40;99176.00;;;;10512274;28;20229;-79
2022/04/08 14:41:35;;;;;;;5.00;1.73;;;;;11.90;99179.00;;;;10508648;28;20293;-79
2022/04/08 14:46:38;;;;;;;4.43;1.53;;;;;11.50;99177.00;;;;10476042;28;20204;-79
2022/04/08 14:51:40;;;;;;;5.17;2.00;;;;;11.30;99175.00;;;;10494052;28;20200;-78
2022/04/08 14:56:44;;;;;;;6.73;2.07;;;;;11.50;99181.00;;;;10542557;28;20564;-79
2022/04/08 15:01:46;;;;;;;6.93;2.50;;;;;12.20;99186.00;;;;10477022;28;20264;-79
2022/04/08 15:06:48;;;;;;;5.33;2.20;;;;;12.00;99193.00;;;;10492432;28;20189;-79
2022/04/08 15:11:51;;;;;;;6.80;2.50;;;;;11.70;99199.00;;;;10525661;28;20632;-79
2022/04/08 15:16:54;;;;;;;5.27;2.27;;;;;11.40;99204.00;;;;10542910;28;20216;-79
2022/04/08 15:21:57;;;;;;;4.73;2.30;;;;;11.30;99196.00;;;;10522121;28;20657;-78
2022/04/08 15:27:19;;;;;;;7.80;2.73;;;;;11.00;99186.00;;;;10519570;28;20582;-79
2022/04/08 15:32:21;;;;;;;8.30;2.70;;;;;11.10;99197.00;;;;10502750;28;20197;-78
2022/04/08 15:37:26;;;;;;;13.30;3.17;;;;;11.00;99197.00;;;;10507879;28;20225;-78
2022/04/08 15:42:34;;;;;;;5.43;3.83;;;;;10.80;99209.00;;;;10474638;28;20624;-79
2022/04/08 15:47:36;;;;;;;5.97;3.50;;;;;10.80;99203.00;;;;10490602;28;20201;-78
2022/04/08 15:52:38;;;;;;;7.60;3.80;;;;;10.40;99196.00;;;;10550705;27;20196;-78
2022/04/08 15:57:40;;;;;;;8.90;4.93;;;;;10.00;99220.00;;;;10583714;27;20303;-79
2022/04/08 16:02:47;;;;;;;7.97;5.03;;;;;9.90;99220.00;;;;10532816;28;20254;-79
2022/04/08 16:07:49;;;;;;;10.00;6.07;;;;;9.60;99227.00;;;;10515221;28;20648;-79
2022/04/08 16:12:51;;;;;;;7.10;5.90;;;;;9.40;99234.00;;;;10497937;28;20204;-79
2022/04/08 16:17:53;;;;;;;6.87;5.20;;;;;9.50;99234.00;;;;10498543;28;20285;-78
2022/04/08 16:22:55;;;;;;;6.60;5.87;;;;;9.40;99239.00;;;;10518003;28;20700;-79
2022/04/08 16:27:57;;;;;;;7.63;5.50;;;;;9.10;99239.00;;;;10556125;28;20250;-79
2022/04/08 16:32:59;;;;;;;8.73;5.20;;;;;8.90;99251.00;;;;10493632;28;20209;-79
2022/04/08 16:38:01;;;;;;;8.77;5.17;;;;;8.60;99256.00;;;;10498173;28;20213;-79
2022/04/08 16:43:03;;;;;;;9.30;4.83;;;;;8.50;99270.00;;;;10542726;28;20216;-79
2022/04/08 16:48:05;;;;;;;8.33;4.30;;;;;8.20;99274.00;;;;10538718;28;20239;-79
2022/04/08 16:53:07;;;;;;;8.57;3.73;;;;;8.00;99266.00;;;;10543011;27;20223;-80
2022/04/08 16:58:09;;;;;;;25.63;11.80;;;;;7.90;99273.00;;;;10512350;28;20233;-79
2022/04/08 17:03:12;;;;;;;10.80;4.93;;;;;7.80;99276.00;;;;10506605;28;20201;-79
2022/04/08 17:08:14;;;;;;;6.73;4.70;;;;;7.60;99274.00;;;;10512772;28;20234;-79
2022/04/08 17:13:16;;;;;;;7.63;4.50;;;;;7.70;99270.00;;;;10495137;28;20208;-80
2022/04/08 17:18:18;;;;;;;7.67;4.27;;;;;7.80;99285.00;;;;10494453;28;20216;-79
2022/04/08 17:23:20;;;;;;;5.80;3.90;;;;;7.80;99271.00;;;;10534241;28;20229;-79
2022/04/08 17:28:22;;;;;;;6.70;3.80;;;;;7.90;99283.00;;;;10553370;28;20230;-79
2022/04/08 17:33:24;;;;;;;6.97;3.43;;;;;7.80;99287.00;;;;10536405;28;20198;-79
2022/04/08 17:38:26;;;;;;;7.27;3.70;;;;;7.70;99289.00;;;;10519259;28;20251;-79
2022/04/08 17:43:29;;;;;;;6.03;3.37;;;;;7.60;99286.00;;;;10518534;28;20196;-79
2022/04/08 17:48:31;;;;;;;8.57;3.20;;;;;7.50;99292.00;;;;10516927;28;20242;-79
2022/04/08 17:53:34;;;;;;;8.57;3.23;;;;;7.40;99300.00;;;;10492587;28;20261;-78
2022/04/08 17:58:38;;;;;;;4.97;1.80;;;;;7.30;99316.00;;;;10497606;28;20268;-79
2022/04/08 18:03:40;;;;;;;6.10;1.40;;;;;7.20;99312.00;;;;10539605;28;20586;-79
2022/04/08 18:08:43;;;;;;;9.03;1.73;;;;;7.10;99317.00;;;;10514527;28;20231;-79
2022/04/08 18:13:45;;;;;;;6.30;2.00;;;;;7.00;99325.00;;;;10518473;28;20188;-80
2022/04/08 18:18:47;;;;;;;3.90;1.57;;;;;7.00;99335.00;;;;10534862;28;20212;-79
2022/04/08 18:23:49;;;;;;;4.43;1.67;;;;;6.90;99340.00;;;;10492245;28;20200;-79
2022/04/08 18:28:51;;;;;;;8.27;1.90;;;;;6.90;99354.00;;;;10497835;28;20197;-79
2022/04/08 18:34:13;;;;;;;10.67;1.80;;;;;6.80;99372.00;;;;10529077;28;20647;-79
2022/04/08 18:39:17;;;;;;;8.17;2.07;;;;;6.80;99382.00;;;;10512844;28;20261;-79
2022/04/08 18:44:19;;;;;;;5.20;1.77;;;;;6.70;99379.00;;;;10534083;28;20210;-81
2022/04/08 18:49:25;;;;;;;5.60;2.40;;;;;6.60;99400.00;;;;10487067;28;20188;-79
2022/04/08 18:54:27;;;;;;;7.33;2.70;;;;;6.60;99407.00;;;;10517579;28;20200;-79
2022/04/08 18:59:29;;;;;;;7.73;3.10;;;;;6.60;99414.00;;;;10525388;28;20189;-79
2022/04/08 19:04:32;;;;;;;8.07;2.67;;;;;6.50;99421.00;;;;10523676;28;20208;-79
2022/04/08 19:09:36;;;;;;;12.83;3.03;;;;;6.50;99423.00;;;;10506736;28;20197;-80
2022/04/08 19:14:38;;;;;;;9.53;3.73;;;;;6.40;99440.00;;;;10506824;28;20620;-78
2022/04/08 19:19:40;;;;;;;7.87;2.80;;;;;6.40;99453.00;;;;10490888;28;20296;-80
2022/04/08 19:24:43;;;;;;;10.77;2.80;;;;;6.40;99468.00;;;;10583878;27;20195;-79
2022/04/08 19:29:45;;;;;;;8.60;2.90;;;;;6.40;99488.00;;;;10566486;27;20187;-79
2022/04/08 19:34:47;;;;;;;5.80;2.23;;;;;6.40;99502.00;;;;10583559;27;20282;-79
2022/04/08 19:39:49;;;;;;;4.47;2.20;;;;;6.30;99515.00;;;;10550705;27;20240;-79
2022/04/08 19:44:51;;;;;;;6.97;2.30;;;;;6.30;99516.00;;;;10482068;28;20205;-79
2022/04/08 19:49:53;;;;;;;7.57;2.57;;;;;6.30;99526.00;;;;10512170;28;20708;-79
2022/04/08 19:54:55;;;;;;;6.20;2.57;;;;;6.30;99539.00;;;;10495090;28;20275;-80
2022/04/08 19:59:57;;;;;;;9.03;2.87;;;;;6.30;99555.00;;;;10514710;28;20193;-79
2022/04/08 20:04:59;;;;;;;5.20;2.50;;;;;6.20;99568.00;;;;10547687;28;20655;-79
2022/04/08 20:10:02;;;;;;;6.47;2.60;;;;;6.10;99577.00;;;;10531154;28;20192;-78
2022/04/08 20:15:05;;;;;;;3.90;2.40;;;;;6.00;99590.00;;;;10497584;28;20209;-78
2022/04/08 20:20:07;;;;;;;5.80;2.90;;;;;5.80;99588.00;;;;10497270;28;20660;-79
2022/04/08 20:25:09;;;;;;;5.00;2.20;;;;;5.80;99599.00;;;;10590891;27;20237;-78
2022/04/08 20:30:11;;;;;;;5.03;2.30;;;;;5.70;99610.00;;;;10545180;27;20323;-79
2022/04/08 20:35:13;;;;;;;10.67;2.47;;;;;5.70;99624.00;;;;10522305;28;20234;-78
2022/04/08 20:40:16;;;;;;;4.27;2.17;;;;;5.60;99631.00;;;;10502788;28;20225;-81
2022/04/08 20:45:18;;;;;;;8.63;2.37;;;;;5.50;99650.00;;;;10495430;28;20208;-80
2022/04/08 20:50:20;;;;;;;7.97;3.53;;;;;5.40;99647.00;;;;10492714;28;20196;-81
2022/04/08 20:55:22;;;;;;;9.00;3.10;;;;;5.20;99659.00;;;;10541442;28;20247;-81
2022/04/08 21:00:24;;;;;;;9.17;3.07;;;;;5.10;99671.00;;;;10515036;28;20274;-81
2022/04/08 21:05:31;;;;;;;7.47;3.53;;;;;4.90;99680.00;;;;10510636;28;20242;-81
2022/04/08 21:10:32;;;;;;;10.13;2.53;;;;;4.80;99685.00;;;;10511468;28;20189;-79
2022/04/08 21:15:35;;;;;;;7.13;2.97;;;;;4.70;99698.00;;;;10527843;28;20266;-81
2022/04/08 21:20:37;;;;;;;9.53;2.47;;;;;4.70;99705.00;;;;10512019;28;20208;-79
2022/04/08 21:25:39;;;;;;;7.60;2.57;;;;;4.70;99723.00;;;;10508552;28;20193;-81
2022/04/08 21:30:44;;;;;;;4.37;2.00;;;;;4.70;99736.00;;;;10515909;28;20651;-81
2022/04/08 21:35:46;;;;;;;11.53;2.30;;;;;4.70;99745.00;;;;10511060;28;20213;-81
2022/04/08 21:40:47;;;;;;;8.87;2.30;;;;;4.70;99762.00;;;;10495155;28;20223;-81
2022/04/08 21:46:10;;;;;;;9.00;2.13;;;;;4.60;99769.00;;;;10479219;28;20208;-81
2022/04/08 21:51:12;;;;;;;7.97;2.43;;;;;4.60;99778.00;;;;10499398;28;20282;-80
2022/04/08 21:56:14;;;;;;;5.10;2.27;;;;;4.60;99790.00;;;;10506811;28;20213;-80
2022/04/08 22:01:16;;;;;;;7.50;2.90;;;;;4.50;99806.00;;;;10511269;28;20532;-81
2022/04/08 22:06:18;;;;;;;8.00;3.00;;;;;4.40;99827.00;;;;10534027;28;20655;-79
2022/04/08 22:11:20;;;;;;;7.17;2.83;;;;;4.40;99833.00;;;;10532913;28;20192;-81
2022/04/08 22:16:22;;;;;;;8.47;2.87;;;;;4.30;99850.00;;;;10530638;28;20212;-81
2022/04/08 22:21:25;;;;;;;9.80;3.17;;;;;4.20;99864.00;;;;10531797;28;20224;-79
2022/04/08 22:26:27;;;;;;;6.33;2.70;;;;;4.00;99869.00;;;;10533506;28;20520;-81
2022/04/08 22:31:29;;;;;;;6.33;2.40;;;;;4.00;99885.00;;;;10514776;28;20223;-80
2022/04/08 22:36:31;;;;;;;14.10;2.63;;;;;3.90;99892.00;;;;10522435;28;20219;-81
2022/04/08 22:41:33;;;;;;;15.97;4.00;;;;;4.00;99909.00;;;;10490149;28;20243;-79
2022/04/08 22:46:35;;;;;;;6.17;2.90;;;;;4.00;99919.00;;;;10490114;28;20651;-79
2022/04/08 22:51:37;;;;;;;8.93;2.70;;;;;3.90;99926.00;;;;10536274;28;20203;-79
2022/04/08 22:56:39;;;;;;;9.20;3.10;;;;;3.80;99947.00;;;;10547716;28;20208;-79
2022/04/08 23:01:41;;;;;;;6.13;3.03;;;;;3.70;99944.00;;;;10546969;28;20188;-81
2022/04/08 23:06:43;;;;;;;14.20;3.67;;;;;3.60;99966.00;;;;10548589;28;20185;-80
2022/04/08 23:11:45;;;;;;;10.77;2.77;;;;;3.60;99973.00;;;;10504853;28;20193;-81
2022/04/08 23:16:46;;;;;;;10.77;3.23;;;;;3.60;99982.00;;;;10474539;28;20212;-81
2022/04/08 23:21:49;;;;;;;12.53;2.70;;;;;3.60;99988.00;;;;10556771;28;20531;-82
2022/04/08 23:26:52;;;;;;;18.70;3.30;;;;;3.60;100006.00;;;;10571095;28;20230;-81
2022/04/08 23:31:56;;;;;;;8.63;2.67;;;;;3.50;100012.00;;;;10538351;28;20242;-81
2022/04/08 23:36:58;;;;;;;17.43;2.80;;;;;3.40;100019.00;;;;10522038;28;20703;-81
2022/04/08 23:42:00;;;;;;;17.03;2.53;;;;;3.40;100036.00;;;;10503600;28;20189;-81
2022/04/08 23:47:02;;;;;;;13.60;2.50;;;;;3.30;100049.00;;;;10516220;28;20201;-81
2022/04/08 23:52:04;;;;;;;11.30;2.50;;;;;3.30;100068.00;;;;10498387;28;20559;-81
2022/04/08 23:57:06;;;;;;;15.53;2.60;;;;;3.30;100070.00;;;;10542955;28;20641;-81
